Time;durP1;ratioP1;P1;durP2;ratioP2;P2;SDS_P1;SDS_P2;PMS_P1;PMS_P2;Temp;Humidity;BMP_temperature;BMP_pressure;BME280_temperature;BME280_humidity;BME280_pressure;Samples;Min_cycle;Max_cycle;Signal;HPM_P1;HPM_P2
2022/09/11 00:00:43;;;;;;;;;;;;;;;16.35;100.00;99493.31;5115024;28;20382;-78
2022/09/11 00:03:10;;;;;;;;;;;;;;;16.22;100.00;99496.13;5114981;28;19924;-78
2022/09/11 00:05:38;;;;;;;;;;;;;;;16.08;100.00;99502.22;5113278;28;19969;-78
2022/09/11 00:08:10;;;;;;;;;;;;;;;16.03;100.00;99499.97;5114769;28;19962;-78
2022/09/11 00:10:39;;;;;;;;;;;;;;;16.12;100.00;99496.47;5114725;28;19924;-78
2022/09/11 00:13:07;;;;;;;;;;;;;;;15.85;100.00;99508.19;5114730;28;19924;-78
2022/09/11 00:15:37;;;;;;;;;;;;;;;15.70;100.00;99509.06;5114871;28;19966;-78
2022/09/11 00:18:05;;;;;;;;;;;;;;;15.53;100.00;99511.16;5113399;28;19934;-78
2022/09/11 00:20:32;;;;;;;;;;;;;;;15.39;100.00;99505.91;5113147;28;19977;-78
2022/09/11 00:23:03;;;;;;;;;;;;;;;15.40;100.00;99501.88;5114480;28;19970;-78
2022/09/11 00:25:34;;;;;;;;;;;;;;;15.63;100.00;99507.22;5113319;28;19924;-78
2022/09/11 00:28:01;;;;;;;;;;;;;;;15.52;100.00;99498.31;5114407;28;19927;-78
2022/09/11 00:30:28;;;;;;;;;;;;;;;14.54;100.00;99497.34;5096131;28;20449;-78
2022/09/11 00:32:56;;;;;;;;;;;;;;;14.58;100.00;99498.03;5113126;28;19927;-78
2022/09/11 00:35:23;;;;;;;;;;;;;;;14.76;100.00;99496.38;5112794;28;19924;-78
2022/09/11 00:37:50;;;;;;;;;;;;;;;14.83;100.00;99496.19;5113024;28;19936;-78
2022/09/11 00:40:18;;;;;;;;;;;;;;;14.69;100.00;99487.31;5113037;28;20360;-78
2022/09/11 00:42:50;;;;;;;;;;;;;;;14.32;100.00;99488.66;5114229;28;19989;-78
2022/09/11 00:45:22;;;;;;;;;;;;;;;13.85;100.00;99498.56;5113007;28;19950;-78
2022/09/11 00:47:50;;;;;;;;;;;;;;;13.98;100.00;99489.00;5114034;28;19923;-78
2022/09/11 00:50:21;;;;;;;;;;;;;;;14.19;100.00;99488.50;5095930;28;20014;-78
2022/09/11 00:52:53;;;;;;;;;;;;;;;14.47;100.00;99484.25;5112899;28;20386;-78
2022/09/11 00:55:21;;;;;;;;;;;;;;;14.45;100.00;99481.09;5112792;28;19923;-78
2022/09/11 00:57:56;;;;;;;;;;;;;;;14.30;100.00;99488.28;5112499;28;19988;-78
2022/09/11 01:00:24;;;;;;;;;;;;;;;14.20;100.00;99483.69;5112864;28;19927;-78
2022/09/11 01:02:52;;;;;;;;;;;;;;;13.95;100.00;99483.50;5113440;28;20316;-78
2022/09/11 01:05:21;;;;;;;;;;;;;;;13.81;100.00;99486.63;5112635;28;19946;-78
2022/09/11 01:07:53;;;;;;;;;;;;;;;13.85;100.00;99487.31;5112572;28;20019;-78
2022/09/11 01:10:27;;;;;;;;;;;;;;;13.94;100.00;99484.69;5112459;28;19931;-78
2022/09/11 01:13:14;;;;;;;;;;;;;;;14.04;100.00;99484.44;5112668;28;20302;-78
2022/09/11 01:15:53;;;;;;;;;;;;;;;13.98;100.00;99485.44;5113688;28;19935;-78
2022/09/11 01:18:47;;;;;;;;;;;;;;;13.63;100.00;99478.56;5112413;28;19971;-78
2022/09/11 01:21:27;;;;;;;;;;;;;;;13.69;100.00;99476.06;5074832;28;19924;-78
2022/09/11 01:24:11;;;;;;;;;;;;;;;13.84;100.00;99480.13;5113614;28;19934;-78
2022/09/11 01:26:56;;;;;;;;;;;;;;;13.71;100.00;99482.00;5113498;28;19931;-78
2022/09/11 01:29:43;;;;;;;;;;;;;;;13.57;100.00;99471.88;5113611;28;19924;-78
2022/09/11 01:32:18;;;;;;;;;;;;;;;13.65;100.00;99478.94;5111937;28;19931;-78
2022/09/11 01:34:45;;;;;;;;;;;;;;;13.48;100.00;99484.94;5112243;28;19931;-78
2022/09/11 01:37:17;;;;;;;;;;;;;;;13.50;100.00;99476.84;5095900;28;19931;-78
2022/09/11 01:39:48;;;;;;;;;;;;;;;13.57;100.00;99482.34;5112248;28;19924;-78
2022/09/11 01:42:18;;;;;;;;;;;;;;;13.59;100.00;99474.25;5112279;28;19928;-78
2022/09/11 01:44:53;;;;;;;;;;;;;;;13.59;100.00;99474.25;5112186;28;19928;-78
2022/09/11 01:47:21;;;;;;;;;;;;;;;13.44;100.00;99470.16;5112117;28;19973;-78
2022/09/11 01:50:06;;;;;;;;;;;;;;;13.31;100.00;99477.66;5095801;28;19939;-78
2022/09/11 01:52:38;;;;;;;;;;;;;;;13.19;100.00;99478.31;5112225;28;20378;-78
2022/09/11 01:55:11;;;;;;;;;;;;;;;13.06;100.00;99463.31;5112081;28;19951;-78
2022/09/11 01:57:48;;;;;;;;;;;;;;;12.96;100.00;99469.91;5095289;28;19930;-78
2022/09/11 02:00:16;;;;;;;;;;;;;;;12.85;100.00;99464.50;5112009;28;20393;-78
2022/09/11 02:02:56;;;;;;;;;;;;;;;12.46;100.00;99465.19;5113035;28;19927;-78
2022/09/11 02:05:27;;;;;;;;;;;;;;;12.44;100.00;99470.44;5113215;28;20317;-78
2022/09/11 02:08:02;;;;;;;;;;;;;;;12.84;100.00;99473.34;5113263;28;19977;-78
2022/09/11 02:10:33;;;;;;;;;;;;;;;12.98;100.00;99457.03;5114806;28;19969;-78
2022/09/11 02:13:06;;;;;;;;;;;;;;;12.93;100.00;99463.16;5117128;28;19923;-78
2022/09/11 02:15:38;;;;;;;;;;;;;;;12.89;100.00;99454.00;5115600;28;19980;-78
2022/09/11 02:18:10;;;;;;;;;;;;;;;12.91;100.00;99447.97;5082112;28;19932;-78
2022/09/11 02:20:37;;;;;;;;;;;;;;;12.64;100.00;99448.06;5115951;28;19923;-78
2022/09/11 02:23:05;;;;;;;;;;;;;;;12.34;100.00;99453.81;5098997;28;19959;-78
2022/09/11 02:25:32;;;;;;;;;;;;;;;12.65;100.00;99456.06;5115665;28;19928;-78
2022/09/11 02:28:04;;;;;;;;;;;;;;;12.73;100.00;99446.31;5115485;28;20352;-78
2022/09/11 02:30:31;;;;;;;;;;;;;;;12.62;100.00;99451.31;5098223;28;19961;-78
2022/09/11 02:32:59;;;;;;;;;;;;;;;12.56;100.00;99449.41;5098642;28;20340;-78
2022/09/11 02:35:29;;;;;;;;;;;;;;;12.08;100.00;99443.44;5115578;28;19992;-78
2022/09/11 02:38:16;;;;;;;;;;;;;;;12.20;100.00;99440.03;5115749;28;19978;-78
2022/09/11 02:41:03;;;;;;;;;;;;;;;12.34;100.00;99434.97;5098350;28;19937;-78
2022/09/11 02:44:06;;;;;;;;;;;;;;;12.38;100.00;99441.31;5115393;28;19930;-78
2022/09/11 02:46:52;;;;;;;;;;;;;;;12.38;100.00;99432.13;5000533;28;20036;-78
2022/09/11 02:49:34;;;;;;;;;;;;;;;12.38;100.00;99430.13;5017352;28;20367;-78
2022/09/11 02:52:08;;;;;;;;;;;;;;;12.22;100.00;99435.59;5017108;28;19931;-78
2022/09/11 02:54:53;;;;;;;;;;;;;;;12.05;100.00;99433.09;5017042;28;19937;-78
2022/09/11 02:57:21;;;;;;;;;;;;;;;11.88;100.00;99434.94;5016937;28;19932;-78
2022/09/11 02:59:56;;;;;;;;;;;;;;;11.88;100.00;99446.16;5016621;28;19925;-78
2022/09/11 03:02:23;;;;;;;;;;;;;;;12.03;100.00;99435.50;5016994;28;19925;-78
2022/09/11 03:04:51;;;;;;;;;;;;;;;12.11;100.00;99437.00;5033361;28;20020;-78
2022/09/11 03:07:18;;;;;;;;;;;;;;;12.08;100.00;99441.44;5016846;28;19925;-78
2022/09/11 03:09:45;;;;;;;;;;;;;;;11.79;100.00;99433.88;5016748;28;19931;-78
2022/09/11 03:12:19;;;;;;;;;;;;;;;11.31;100.00;99428.56;5016547;28;19925;-78
2022/09/11 03:14:48;;;;;;;;;;;;;;;11.43;100.00;99441.97;5016273;28;19925;-78
2022/09/11 03:17:15;;;;;;;;;;;;;;;11.75;100.00;99436.75;5016656;28;19925;-78
2022/09/11 03:19:42;;;;;;;;;;;;;;;11.82;100.00;99436.63;5043754;28;19925;-78
2022/09/11 03:22:09;;;;;;;;;;;;;;;11.88;100.00;99429.34;5114752;28;20093;-78
2022/09/11 03:24:38;;;;;;;;;;;;;;;11.59;100.00;99439.34;5114511;28;19923;-78
2022/09/11 03:27:06;;;;;;;;;;;;;;;11.08;100.00;99434.03;5114428;28;20332;-78
2022/09/11 03:29:33;;;;;;;;;;;;;;;10.65;100.00;99446.88;5114393;28;20366;-78
2022/09/11 03:32:01;;;;;;;;;;;;;;;10.62;100.00;99447.72;5115579;28;19971;-78
2022/09/11 03:34:28;;;;;;;;;;;;;;;11.16;100.00;99432.75;5114500;28;20020;-78
2022/09/11 03:36:55;;;;;;;;;;;;;;;11.23;100.00;99432.63;5114439;28;19966;-78
2022/09/11 03:39:23;;;;;;;;;;;;;;;11.33;100.00;99425.34;5115431;28;19924;-78
2022/09/11 03:41:50;;;;;;;;;;;;;;;11.32;100.00;99435.72;5114244;28;19924;-78
2022/09/11 03:44:17;;;;;;;;;;;;;;;11.29;100.00;99433.75;5096841;28;19924;-78
2022/09/11 03:46:44;;;;;;;;;;;;;;;11.31;100.00;99433.34;5114193;28;19993;-78
2022/09/11 03:49:11;;;;;;;;;;;;;;;11.30;100.00;99429.75;5115352;28;20286;-78
2022/09/11 03:51:38;;;;;;;;;;;;;;;11.28;100.00;99418.19;5113964;28;20431;-78
2022/09/11 03:54:06;;;;;;;;;;;;;;;11.33;100.00;99423.31;5113953;28;19946;-78
2022/09/11 03:56:35;;;;;;;;;;;;;;;11.33;100.00;99420.50;5096985;28;19953;-78
2022/09/11 03:59:02;;;;;;;;;;;;;;;11.36;100.00;99419.66;5113633;28;19924;-78
2022/09/11 04:01:29;;;;;;;;;;;;;;;11.26;100.00;99408.63;5115059;28;19976;-78
2022/09/11 04:03:57;;;;;;;;;;;;;;;10.99;100.00;99411.38;5096835;28;19973;-78
2022/09/11 04:06:31;;;;;;;;;;;;;;;11.05;100.00;99412.50;5113697;28;19924;-78
2022/09/11 04:08:59;;;;;;;;;;;;;;;11.27;100.00;99399.81;5096822;28;19962;-78
2022/09/11 04:11:26;;;;;;;;;;;;;;;11.24;100.00;99397.84;5113279;28;19967;-78
2022/09/11 04:13:54;;;;;;;;;;;;;;;11.22;100.00;99397.50;5113598;28;19973;-78
2022/09/11 04:16:24;;;;;;;;;;;;;;;10.88;100.00;99391.13;5113494;28;19923;-78
2022/09/11 04:18:54;;;;;;;;;;;;;;;10.91;100.00;99393.09;5096601;28;19924;-78
2022/09/11 04:21:23;;;;;;;;;;;;;;;11.12;100.00;99387.22;5113482;28;19924;-78
2022/09/11 04:23:55;;;;;;;;;;;;;;;11.12;100.00;99390.03;5113413;28;19923;-78
2022/09/11 04:26:24;;;;;;;;;;;;;;;10.98;100.00;99393.00;5113097;28;19931;-78
2022/09/11 04:28:57;;;;;;;;;;;;;;;10.79;100.00;99397.22;5113327;28;19936;-78
2022/09/11 04:31:28;;;;;;;;;;;;;;;10.45;100.00;99395.63;5112810;28;20388;-78
2022/09/11 04:33:55;;;;;;;;;;;;;;;10.47;100.00;99395.97;5096093;28;19924;-78
2022/09/11 04:36:25;;;;;;;;;;;;;;;10.23;100.00;99391.44;5113285;28;19923;-78
2022/09/11 04:38:54;;;;;;;;;;;;;;;9.98;100.00;99397.22;5112977;28;19967;-78
2022/09/11 04:41:22;;;;;;;;;;;;;;;9.78;100.00;99403.75;5095958;28;20468;-78
2022/09/11 04:43:52;;;;;;;;;;;;;;;9.81;100.00;99397.34;5114166;28;19930;-78
2022/09/11 04:46:19;;;;;;;;;;;;;;;10.35;100.00;99393.72;5096007;28;19931;-78
2022/09/11 04:48:48;;;;;;;;;;;;;;;10.50;100.00;99392.34;5096245;28;20018;-78
2022/09/11 04:51:25;;;;;;;;;;;;;;;10.63;100.00;99402.59;5112672;28;19924;-78
2022/09/11 04:53:58;;;;;;;;;;;;;;;10.62;100.00;99400.22;5095878;28;19930;-78
2022/09/11 04:56:33;;;;;;;;;;;;;;;10.68;100.00;99401.34;5112553;28;19924;-78
2022/09/11 04:59:02;;;;;;;;;;;;;;;10.78;100.00;99394.84;5112785;28;19930;-78
2022/09/11 05:01:30;;;;;;;;;;;;;;;10.74;100.00;99402.47;5112766;28;19938;-78
2022/09/11 05:04:00;;;;;;;;;;;;;;;10.50;100.00;99400.75;5112715;28;20271;-78
2022/09/11 05:06:29;;;;;;;;;;;;;;;10.69;100.00;99400.91;5112614;28;19962;-78
2022/09/11 05:09:03;;;;;;;;;;;;;;;10.94;100.00;99401.44;5094372;28;19931;-78
2022/09/11 05:11:33;;;;;;;;;;;;;;;10.92;100.00;99395.47;5095803;28;19931;-78
2022/09/11 05:14:00;;;;;;;;;;;;;;;10.95;100.00;99396.63;5095531;28;20303;-78
2022/09/11 05:16:30;;;;;;;;;;;;;;;10.89;100.00;99401.09;5112775;28;20014;-78
2022/09/11 05:18:58;;;;;;;;;;;;;;;10.56;100.00;99399.06;5113672;28;19936;-78
2022/09/11 05:21:25;;;;;;;;;;;;;;;10.86;100.00;99402.72;5112440;28;19953;-78
2022/09/11 05:23:54;;;;;;;;;;;;;;;10.97;100.00;99397.00;5112099;28;19976;-78
2022/09/11 05:26:22;;;;;;;;;;;;;;;10.71;100.00;99401.31;5112131;28;19972;-78
2022/09/11 05:28:54;;;;;;;;;;;;;;;10.81;100.00;99405.19;5112407;28;19928;-78
2022/09/11 05:31:22;;;;;;;;;;;;;;;10.99;100.00;99395.38;5112346;28;19930;-78
2022/09/11 05:33:49;;;;;;;;;;;;;;;10.97;100.00;99391.41;5095289;28;20382;-78
2022/09/11 05:36:16;;;;;;;;;;;;;;;10.67;100.00;99402.56;5112261;28;20018;-78
2022/09/11 05:38:44;;;;;;;;;;;;;;;10.44;100.00;99403.19;5111868;28;20485;-78
2022/09/11 05:41:12;;;;;;;;;;;;;;;10.56;100.00;99407.47;5112266;28;20367;-78
2022/09/11 05:43:40;;;;;;;;;;;;;;;10.53;100.00;99408.28;5113743;28;20264;-78
2022/09/11 05:46:10;;;;;;;;;;;;;;;10.61;100.00;99407.03;5116464;28;20352;-78
2022/09/11 05:48:37;;;;;;;;;;;;;;;10.69;100.00;99412.09;5116382;28;20375;-78
2022/09/11 05:51:06;;;;;;;;;;;;;;;10.71;100.00;99411.69;5116287;28;19958;-78
2022/09/11 05:53:34;;;;;;;;;;;;;;;10.85;100.00;99412.34;5115981;28;19924;-78
2022/09/11 05:56:06;;;;;;;;;;;;;;;10.90;100.00;99411.09;5116450;28;19955;-78
2022/09/11 05:58:33;;;;;;;;;;;;;;;11.22;100.00;99417.09;5099473;28;19967;-78
2022/09/11 06:01:06;;;;;;;;;;;;;;;11.45;100.00;99417.16;5116173;28;19931;-79
2022/09/11 06:03:34;;;;;;;;;;;;;;;11.49;100.00;99409.50;5116084;28;20375;-78
2022/09/11 06:06:02;;;;;;;;;;;;;;;11.57;100.00;99410.19;5116038;28;19924;-79
2022/09/11 06:08:31;;;;;;;;;;;;;;;11.65;100.00;99409.69;5115749;28;19931;-79
2022/09/11 06:11:00;;;;;;;;;;;;;;;11.70;100.00;99406.44;5115841;28;19923;-79
2022/09/11 06:13:28;;;;;;;;;;;;;;;11.88;100.00;99406.16;5099074;28;19973;-78
2022/09/11 06:15:57;;;;;;;;;;;;;;;11.88;100.00;99404.16;5115903;28;19923;-79
2022/09/11 06:18:25;;;;;;;;;;;;;;;12.08;100.00;99410.63;5117394;28;19924;-79
2022/09/11 06:21:00;;;;;;;;;;;;;;;11.97;100.00;99410.00;5115809;28;19928;-79
2022/09/11 06:23:34;;;;;;;;;;;;;;;12.09;100.00;99412.19;5115503;28;19924;-79
2022/09/11 06:26:06;;;;;;;;;;;;;;;12.23;100.00;99406.38;5115387;28;19946;-79
2022/09/11 06:28:36;;;;;;;;;;;;;;;12.40;100.00;99398.88;5115793;28;20353;-79
2022/09/11 06:31:04;;;;;;;;;;;;;;;12.65;100.00;99404.78;5115599;28;19930;-79
2022/09/11 06:33:39;;;;;;;;;;;;;;;12.75;100.00;99393.38;5115462;28;20011;-79
2022/09/11 06:36:09;;;;;;;;;;;;;;;12.94;100.00;99405.84;5115448;28;19924;-79
2022/09/11 06:38:37;;;;;;;;;;;;;;;12.93;100.00;99401.44;5115412;28;19924;-79
2022/09/11 06:41:07;;;;;;;;;;;;;;;13.11;100.00;99398.31;5098446;28;19953;-79
2022/09/11 06:43:35;;;;;;;;;;;;;;;13.29;100.00;99407.13;5115247;28;20010;-79
2022/09/11 06:46:13;;;;;;;;;;;;;;;13.50;100.00;99406.66;5098660;28;19930;-79
2022/09/11 06:48:41;;;;;;;;;;;;;;;13.49;100.00;99417.13;5115244;28;20374;-79
2022/09/11 06:51:12;;;;;;;;;;;;;;;13.65;100.00;99417.16;5097927;28;19932;-79
2022/09/11 06:53:41;;;;;;;;;;;;;;;13.93;100.00;99424.13;5098288;28;19928;-79
2022/09/11 06:56:12;;;;;;;;;;;;;;;14.19;100.00;99423.88;5114425;28;19965;-79
2022/09/11 06:58:40;;;;;;;;;;;;;;;13.96;100.00;99414.84;5098651;28;19928;-79
2022/09/11 07:01:11;;;;;;;;;;;;;;;13.76;100.00;99419.72;5115072;28;20378;-79
2022/09/11 07:03:45;;;;;;;;;;;;;;;13.34;100.00;99415.06;5098024;28;19924;-79
2022/09/11 07:06:15;;;;;;;;;;;;;;;13.71;100.00;99423.03;5114761;28;20427;-79
2022/09/11 07:08:55;;;;;;;;;;;;;;;14.25;100.00;99415.75;5114998;28;19924;-79
2022/09/11 07:11:22;;;;;;;;;;;;;;;15.28;100.00;99415.31;5115141;28;19931;-79
2022/09/11 07:13:50;;;;;;;;;;;;;;;16.30;100.00;99394.44;5114823;28;20419;-79
2022/09/11 07:16:17;;;;;;;;;;;;;;;16.41;100.00;99389.19;5114881;28;20449;-79
2022/09/11 07:18:52;;;;;;;;;;;;;;;15.76;100.00;99394.56;5114788;28;20499;-79
2022/09/11 07:21:22;;;;;;;;;;;;;;;16.17;100.00;99398.06;5097682;28;20332;-79
2022/09/11 07:23:55;;;;;;;;;;;;;;;16.81;100.00;99404.34;5114766;28;19924;-79
2022/09/11 07:26:24;;;;;;;;;;;;;;;17.44;100.00;99399.19;5114516;28;19924;-79
2022/09/11 07:28:57;;;;;;;;;;;;;;;17.53;100.00;99391.56;5097575;28;20414;-79
2022/09/11 07:31:26;;;;;;;;;;;;;;;17.58;100.00;99382.47;5080950;28;20363;-79
2022/09/11 07:33:55;;;;;;;;;;;;;;;17.77;100.00;99377.69;5114339;28;20009;-79
2022/09/11 07:36:31;;;;;;;;;;;;;;;17.79;100.00;99384.47;5097582;28;19924;-79
2022/09/11 07:38:59;;;;;;;;;;;;;;;17.21;100.00;99386.31;5114373;28;19969;-79
2022/09/11 07:41:35;;;;;;;;;;;;;;;17.33;100.00;99393.09;5114536;28;19924;-79
2022/09/11 07:44:08;;;;;;;;;;;;;;;16.90;100.00;99393.13;5114199;28;19936;-79
2022/09/11 07:46:40;;;;;;;;;;;;;;;17.95;100.00;99384.22;5115341;27;20006;-79
2022/09/11 07:49:09;;;;;;;;;;;;;;;19.26;100.00;99376.50;5113960;28;19981;-79
2022/09/11 07:51:39;;;;;;;;;;;;;;;19.61;100.00;99367.16;5096974;28;19978;-79
2022/09/11 07:54:08;;;;;;;;;;;;;;;19.69;100.00;99367.59;5113943;28;19931;-79
2022/09/11 07:56:36;;;;;;;;;;;;;;;20.10;100.00;99369.63;5097259;28;20302;-79
2022/09/11 07:59:06;;;;;;;;;;;;;;;20.11;100.00;99361.91;5113997;28;19927;-79
2022/09/11 08:01:35;;;;;;;;;;;;;;;20.21;100.00;99358.56;5113727;28;19927;-79
2022/09/11 08:04:05;;;;;;;;;;;;;;;20.00;100.00;99353.13;5096216;28;20193;-79
2022/09/11 08:06:35;;;;;;;;;;;;;;;18.60;100.00;99360.50;5096312;28;19938;-79
2022/09/11 08:09:05;;;;;;;;;;;;;;;18.06;100.00;99363.97;5096607;28;19923;-79
2022/09/11 08:11:39;;;;;;;;;;;;;;;17.99;100.00;99365.06;5096892;28;20173;-79
2022/09/11 08:14:06;;;;;;;;;;;;;;;17.96;100.00;99363.16;5079752;28;19924;-79
2022/09/11 08:16:35;;;;;;;;;;;;;;;17.85;100.00;99362.81;5113522;28;20465;-79
2022/09/11 08:19:03;;;;;;;;;;;;;;;17.76;100.00;99362.78;5113312;28;19923;-79
2022/09/11 08:21:31;;;;;;;;;;;;;;;17.75;100.00;99361.19;5113387;28;20303;-79
2022/09/11 08:24:02;;;;;;;;;;;;;;;17.79;100.00;99364.69;5113476;28;19928;-79
2022/09/11 08:26:35;;;;;;;;;;;;;;;17.88;100.00;99356.25;5113223;28;19923;-79
2022/09/11 08:29:02;;;;;;;;;;;;;;;18.02;100.00;99354.06;5096395;28;19924;-79
2022/09/11 08:31:32;;;;;;;;;;;;;;;17.98;100.00;99353.44;5096322;28;19974;-79
2022/09/11 08:34:00;;;;;;;;;;;;;;;17.96;100.00;99362.38;5112841;28;19976;-79
2022/09/11 08:36:28;;;;;;;;;;;;;;;17.46;100.00;99369.22;5113193;28;19962;-79
2022/09/11 08:38:59;;;;;;;;;;;;;;;17.34;100.00;99366.47;5113142;28;19923;-79
2022/09/11 08:41:28;;;;;;;;;;;;;;;17.39;100.00;99363.03;5096646;28;20016;-79
2022/09/11 08:43:58;;;;;;;;;;;;;;;17.77;100.00;99374.84;5113010;28;19924;-79
2022/09/11 08:46:30;;;;;;;;;;;;;;;17.69;100.00;99371.53;5096188;28;20279;-79
2022/09/11 08:49:07;;;;;;;;;;;;;;;18.03;100.00;99376.22;5112751;28;19977;-79
2022/09/11 08:51:35;;;;;;;;;;;;;;;18.17;100.00;99372.00;5096025;28;19924;-79
2022/09/11 08:54:03;;;;;;;;;;;;;;;18.37;100.00;99375.22;5112791;28;19934;-79
2022/09/11 08:56:35;;;;;;;;;;;;;;;18.47;100.00;99368.34;5096044;28;19959;-79
2022/09/11 08:59:21;;;;;;;;;;;;;;;18.54;100.00;99373.72;5112783;28;19931;-79
2022/09/11 09:01:48;;;;;;;;;;;;;;;18.51;100.00;99369.00;5112499;28;19928;-79
2022/09/11 09:04:51;;;;;;;;;;;;;;;18.64;100.00;99367.59;5112737;28;19931;-79
2022/09/11 09:07:31;;;;;;;;;;;;;;;18.74;100.00;99374.81;5031039;28;20494;-79
2022/09/11 09:10:16;;;;;;;;;;;;;;;18.03;100.00;99373.41;5014720;28;19936;-79
2022/09/11 09:12:47;;;;;;;;;;;;;;;18.06;100.00;99378.13;4982255;28;19932;-79
2022/09/11 09:15:24;;;;;;;;;;;;;;;18.33;100.00;99374.56;4998034;28;19960;-79
2022/09/11 09:17:59;;;;;;;;;;;;;;;18.10;100.00;99373.09;5014113;28;19925;-79
2022/09/11 09:20:34;;;;;;;;;;;;;;;18.39;100.00;99367.84;4998152;28;19925;-79
2022/09/11 09:23:06;;;;;;;;;;;;;;;18.65;100.00;99374.81;4998068;28;19931;-79
2022/09/11 09:25:35;;;;;;;;;;;;;;;18.76;100.00;99375.13;5014418;28;20339;-81
2022/09/11 09:28:13;;;;;;;;;;;;;;;18.68;100.00;99368.19;4997459;28;20362;-79
2022/09/11 09:31:06;;;;;;;;;;;;;;;19.00;100.00;99370.41;5013661;28;20271;-79
2022/09/11 09:33:36;;;;;;;;;;;;;;;19.22;100.00;99361.72;5013971;28;20372;-79
2022/09/11 09:36:17;;;;;;;;;;;;;;;19.10;100.00;99369.13;5014208;28;19926;-79
2022/09/11 09:38:45;;;;;;;;;;;;;;;18.81;100.00;99377.31;4997744;28;20469;-79
2022/09/11 09:41:25;;;;;;;;;;;;;;;19.00;100.00;99372.44;5055065;28;19958;-79
2022/09/11 09:44:09;;;;;;;;;;;;;;;18.21;100.00;99376.28;5112256;28;19931;-79
2022/09/11 09:46:43;;;;;;;;;;;;;;;18.72;100.00;99380.16;5113179;28;19947;-76
2022/09/11 09:49:18;;;;;;;;;;;;;;;18.61;100.00;99385.50;5113430;28;19931;-79
2022/09/11 09:51:45;;;;;;;;;;;;;;;18.17;100.00;99378.47;5111733;28;20357;-79
2022/09/11 09:54:15;;;;;;;;;;;;;;;18.59;100.00;99385.19;5111573;28;19927;-80
2022/09/11 09:56:48;;;;;;;;;;;;;;;18.92;100.00;99376.84;5113234;28;19961;-80
2022/09/11 09:59:18;;;;;;;;;;;;;;;18.21;100.00;99367.78;5113140;28;20027;-80
2022/09/11 10:01:49;;;;;;;;;;;;;;;17.94;100.00;99365.69;5112113;28;19962;-79
2022/09/11 10:04:19;;;;;;;;;;;;;;;17.78;100.00;99373.63;5111982;28;19923;-80
2022/09/11 10:06:47;;;;;;;;;;;;;;;18.10;100.00;99358.19;5113091;28;19924;-80
2022/09/11 10:09:25;;;;;;;;;;;;;;;18.48;100.00;99370.69;5113304;28;19977;-80
2022/09/11 10:12:01;;;;;;;;;;;;;;;18.98;100.00;99361.59;5113208;28;20088;-80
2022/09/11 10:14:33;;;;;;;;;;;;;;;18.97;100.00;99362.06;5112731;28;19928;-79
2022/09/11 10:17:21;;;;;;;;;;;;;;;19.13;100.00;99353.25;5097214;28;19923;-80
2022/09/11 10:19:49;;;;;;;;;;;;;;;19.11;100.00;99356.56;5113107;28;19928;-80
2022/09/11 10:22:21;;;;;;;;;;;;;;;19.05;100.00;99349.94;5095020;28;19924;-80
2022/09/11 10:25:11;;;;;;;;;;;;;;;19.23;100.00;99347.09;5112976;28;20115;-80
2022/09/11 10:27:44;;;;;;;;;;;;;;;19.46;100.00;99343.56;5102519;28;20298;-80
2022/09/11 10:30:24;;;;;;;;;;;;;;;19.88;100.00;99346.44;5113419;28;19927;-80
2022/09/11 10:32:51;;;;;;;;;;;;;;;19.82;100.00;99342.66;5116717;28;19924;-80
2022/09/11 10:35:18;;;;;;;;;;;;;;;19.84;100.00;99339.34;5098510;28;19924;-80
2022/09/11 10:37:45;;;;;;;;;;;;;;;19.73;100.00;99347.59;5115347;28;19930;-79
2022/09/11 10:40:20;;;;;;;;;;;;;;;19.74;100.00;99341.44;5115289;28;20370;-80
2022/09/11 10:42:49;;;;;;;;;;;;;;;19.99;100.00;99335.34;5115083;28;19923;-80
2022/09/11 10:45:16;;;;;;;;;;;;;;;20.18;100.00;99330.38;5116550;28;19932;-80
2022/09/11 10:47:47;;;;;;;;;;;;;;;20.40;100.00;99325.94;5116217;28;19927;-80
2022/09/11 10:50:17;;;;;;;;;;;;;;;20.51;100.00;99320.53;5116422;28;19923;-80
2022/09/11 10:52:56;;;;;;;;;;;;;;;20.80;100.00;99319.81;5116413;28;19955;-80
2022/09/11 10:55:34;;;;;;;;;;;;;;;20.73;100.00;99315.31;5116362;28;19985;-80
2022/09/11 10:58:11;;;;;;;;;;;;;;;20.74;100.00;99308.34;5115861;28;19924;-80
2022/09/11 11:00:38;;;;;;;;;;;;;;;20.68;100.00;99301.78;5116205;28;19927;-80
2022/09/11 11:03:23;;;;;;;;;;;;;;;20.60;100.00;99294.13;5116064;28;20028;-80
2022/09/11 11:06:08;;;;;;;;;;;;;;;21.01;100.00;99291.09;5114981;28;20313;-80
2022/09/11 11:08:55;;;;;;;;;;;;;;;21.16;100.00;99291.06;5116012;28;19939;-80
2022/09/11 11:11:39;;;;;;;;;;;;;;;21.23;100.00;99299.22;5114770;28;20332;-80
2022/09/11 11:14:20;;;;;;;;;;;;;;;20.97;100.00;99301.06;5114728;28;19924;-80
2022/09/11 11:17:08;;;;;;;;;;;;;;;20.75;100.00;99289.25;5115940;28;20370;-80
2022/09/11 11:19:35;;;;;;;;;;;;;;;20.60;100.00;99289.22;5114683;28;19967;-80
2022/09/11 11:22:08;;;;;;;;;;;;;;;20.89;100.00;99277.13;5114568;28;19930;-80
2022/09/11 11:24:35;;;;;;;;;;;;;;;20.36;100.00;99282.78;5115806;27;19931;-80
2022/09/11 11:27:22;;;;;;;;;;;;;;;20.72;100.00;99290.25;5115113;28;19939;-80
2022/09/11 11:30:07;;;;;;;;;;;;;;;20.88;100.00;99284.88;5115525;28;20346;-80
2022/09/11 11:32:53;;;;;;;;;;;;;;;20.28;100.00;99289.34;5114525;28;19973;-80
2022/09/11 11:35:22;;;;;;;;;;;;;;;20.17;100.00;99289.88;5114541;28;19928;-79
2022/09/11 11:37:51;;;;;;;;;;;;;;;18.41;100.00;99296.66;5114223;28;20458;-80
2022/09/11 11:40:30;;;;;;;;;;;;;;;19.11;100.00;99302.75;5115476;28;19986;-79
2022/09/11 11:42:58;;;;;;;;;;;;;;;19.68;100.00;99304.47;5114777;28;19947;-80
2022/09/11 11:45:26;;;;;;;;;;;;;;;19.37;100.00;99300.34;5115380;28;19924;-80
2022/09/11 11:47:54;;;;;;;;;;;;;;;19.85;100.00;99295.56;5114091;28;19931;-80
2022/09/11 11:50:30;;;;;;;;;;;;;;;19.80;100.00;99299.03;5115253;28;19969;-80
2022/09/11 11:53:03;;;;;;;;;;;;;;;20.13;100.00;99286.44;5114109;28;19930;-79
2022/09/11 11:55:43;;;;;;;;;;;;;;;20.33;100.00;99268.78;5114977;28;19939;-80
2022/09/11 11:58:37;;;;;;;;;;;;;;;20.09;100.00;99277.28;5114003;28;19927;-80
2022/09/11 12:01:05;;;;;;;;;;;;;;;19.72;100.00;99275.16;5110133;28;19924;-79
2022/09/11 12:03:42;;;;;;;;;;;;;;;20.53;100.00;99260.44;5114889;28;19936;-80
2022/09/11 12:06:10;;;;;;;;;;;;;;;20.80;100.00;99268.69;5115014;28;20389;-80
2022/09/11 12:08:42;;;;;;;;;;;;;;;20.66;100.00;99258.13;5114941;27;19924;-80
2022/09/11 12:11:11;;;;;;;;;;;;;;;21.17;100.00;99256.50;5114681;28;19928;-80
2022/09/11 12:13:41;;;;;;;;;;;;;;;21.40;100.00;99255.59;5113504;28;19978;-80
2022/09/11 12:16:13;;;;;;;;;;;;;;;21.18;100.00;99257.28;5114683;28;19930;-80
2022/09/11 12:18:58;;;;;;;;;;;;;;;21.14;100.00;99242.50;5114800;28;20386;-80
2022/09/11 12:21:28;;;;;;;;;;;;;;;20.58;100.00;99245.56;5113567;28;19938;-80
2022/09/11 12:23:55;;;;;;;;;;;;;;;20.70;100.00;99253.81;5113453;28;19924;-80
2022/09/11 12:26:23;;;;;;;;;;;;;;;20.64;100.00;99254.97;5114062;28;20374;-80
2022/09/11 12:29:18;;;;;;;;;;;;;;;20.97;100.00;99245.06;5113435;28;20018;-80
2022/09/11 12:31:49;;;;;;;;;;;;;;;20.71;100.00;99237.53;5114557;28;19931;-80
2022/09/11 12:34:17;;;;;;;;;;;;;;;20.86;100.00;99255.38;5114023;28;19947;-80
2022/09/11 12:36:47;;;;;;;;;;;;;;;21.33;100.00;99238.94;5113278;28;19924;-80
2022/09/11 12:39:33;;;;;;;;;;;;;;;20.90;100.00;99236.09;5114477;28;19931;-80
2022/09/11 12:42:19;;;;;;;;;;;;;;;21.37;100.00;99244.44;5114491;28;19924;-80
2022/09/11 12:44:46;;;;;;;;;;;;;;;20.95;100.00;99224.88;5114256;28;19930;-80
2022/09/11 12:47:19;;;;;;;;;;;;;;;20.18;100.00;99239.59;5114342;28;19923;-80
2022/09/11 12:49:58;;;;;;;;;;;;;;;20.99;100.00;99236.81;5114157;28;20043;-80
2022/09/11 12:52:29;;;;;;;;;;;;;;;20.01;100.00;99238.44;5113807;28;19931;-80
2022/09/11 12:55:00;;;;;;;;;;;;;;;20.64;100.00;99226.59;5113427;28;19928;-80
2022/09/11 12:57:30;;;;;;;;;;;;;;;20.78;100.00;99214.47;5095986;28;20279;-80
2022/09/11 13:00:00;;;;;;;;;;;;;;;21.20;100.00;99212.13;5114039;28;20182;-80
2022/09/11 13:02:34;;;;;;;;;;;;;;;20.16;100.00;99220.22;5112949;28;19923;-79